sensor_id;sensor_type;location;lat;lon;timestamp;pressure;altitude;pressure_sealevel;temperature;humidity
77351;BME280;66420;50.246;14.320;2024-02-26T00:02:36;98308.28;;;-0.30;100.00
77351;BME280;66420;50.246;14.320;2024-02-26T00:05:22;98304.53;;;-0.34;100.00
77351;BME280;66420;50.246;14.320;2024-02-26T00:08:07;98303.97;;;-0.26;100.00
77351;BME280;66420;50.246;14.320;2024-02-26T00:10:52;98305.59;;;-0.25;100.00
77351;BME280;66420;50.246;14.320;2024-02-26T00:13:37;98302.09;;;-0.20;100.00
77351;BME280;66420;50.246;14.320;2024-02-26T00:16:21;98297.53;;;-0.10;100.00
77351;BME280;66420;50.246;14.320;2024-02-26T00:19:06;98301.28;;;-0.06;100.00
77351;BME280;66420;50.246;14.320;2024-02-26T00:21:51;98296.72;;;-0.20;100.00
77351;BME280;66420;50.246;14.320;2024-02-26T00:24:35;98295.09;;;-0.11;100.00
77351;BME280;66420;50.246;14.320;2024-02-26T00:27:20;98291.59;;;-0.12;100.00
77351;BME280;66420;50.246;14.320;2024-02-26T00:30:05;98288.66;;;-0.05;100.00
77351;BME280;66420;50.246;14.320;2024-02-26T00:32:49;98293.75;;;-0.14;100.00
77351;BME280;66420;50.246;14.320;2024-02-26T00:35:34;98282.97;;;0.02;100.00
77351;BME280;66420;50.246;14.320;2024-02-26T00:38:19;98284.59;;;0.03;100.00
77351;BME280;66420;50.246;14.320;2024-02-26T00:41:05;98279.78;;;-0.01;100.00
77351;BME280;66420;50.246;14.320;2024-02-26T00:43:49;98282.47;;;0.05;100.00
77351;BME280;66420;50.246;14.320;2024-02-26T00:46:34;98279.78;;;-0.01;100.00
77351;BME280;66420;50.246;14.320;2024-02-26T00:49:19;98275.47;;;-0.02;100.00
77351;BME280;66420;50.246;14.320;2024-02-26T00:52:04;98278.66;;;0.00;100.00
77351;BME280;66420;50.246;14.320;2024-02-26T00:54:48;98275.47;;;-0.02;100.00
77351;BME280;66420;50.246;14.320;2024-02-26T00:57:33;98277.59;;;-0.04;100.00
77351;BME280;66420;50.246;14.320;2024-02-26T01:00:18;98271.16;;;-0.03;100.00
77351;BME280;66420;50.246;14.320;2024-02-26T01:03:03;98265.78;;;-0.03;100.00
77351;BME280;66420;50.246;14.320;2024-02-26T01:05:49;98255.56;;;-0.06;100.00
77351;BME280;66420;50.246;14.320;2024-02-26T01:08:34;98251.25;;;-0.02;100.00
77351;BME280;66420;50.246;14.320;2024-02-26T01:11:19;98244.81;;;-0.01;100.00
77351;BME280;66420;50.246;14.320;2024-02-26T01:14:04;98247.78;;;-0.07;100.00
77351;BME280;66420;50.246;14.320;2024-02-26T01:16:48;98239.16;;;-0.09;100.00
77351;BME280;66420;50.246;14.320;2024-02-26T01:19:33;98249.66;;;-0.03;100.00
77351;BME280;66420;50.246;14.320;2024-02-26T01:22:18;98235.09;;;0.14;100.00
77351;BME280;66420;50.246;14.320;2024-02-26T01:25:03;98237.25;;;-0.04;100.00
77351;BME280;66420;50.246;14.320;2024-02-26T01:27:48;98237.00;;;-0.02;100.00
77351;BME280;66420;50.246;14.320;2024-02-26T01:30:32;98239.13;;;0.01;100.00
77351;BME280;66420;50.246;14.320;2024-02-26T01:33:17;98232.66;;;0.17;100.00
77351;BME280;66420;50.246;14.320;2024-02-26T01:36:02;98230.00;;;-0.08;100.00
77351;BME280;66420;50.246;14.320;2024-02-26T01:38:47;98234.81;;;0.05;100.00
77351;BME280;66420;50.246;14.320;2024-02-26T01:41:32;98230.81;;;-0.08;100.00
77351;BME280;66420;50.246;14.320;2024-02-26T01:44:16;98229.75;;;-0.07;100.00
77351;BME280;66420;50.246;14.320;2024-02-26T01:47:01;98228.13;;;0.08;100.00
77351;BME280;66420;50.246;14.320;2024-02-26T01:49:47;98215.47;;;0.13;100.00
77351;BME280;66420;50.246;14.320;2024-02-26T01:52:32;98213.53;;;0.19;100.00
77351;BME280;66420;50.246;14.320;2024-02-26T01:55:18;98211.97;;;0.08;100.00
77351;BME280;66420;50.246;14.320;2024-02-26T01:58:03;98210.91;;;0.09;100.00
77351;BME280;66420;50.246;14.320;2024-02-26T02:00:49;98215.16;;;0.15;100.00
77351;BME280;66420;50.246;14.320;2024-02-26T02:03:34;98200.38;;;0.17;100.00
77351;BME280;66420;50.246;14.320;2024-02-26T02:06:19;98200.06;;;0.24;100.00
77351;BME280;66420;50.246;14.320;2024-02-26T02:09:04;98208.72;;;0.16;100.00
77351;BME280;66420;50.246;14.320;2024-02-26T02:11:51;98215.13;;;0.30;100.00
77351;BME280;66420;50.246;14.320;2024-02-26T02:14:36;98213.84;;;0.12;100.00
77351;BME280;66420;50.246;14.320;2024-02-26T02:17:20;98210.84;;;0.19;100.00
77351;BME280;66420;50.246;14.320;2024-02-26T02:20:15;98222.44;;;0.14;100.00
77351;BME280;66420;50.246;14.320;2024-02-26T02:23:02;98214.13;;;0.06;100.00
77351;BME280;66420;50.246;14.320;2024-02-26T02:25:47;98219.22;;;0.07;100.00
77351;BME280;66420;50.246;14.320;2024-02-26T02:28:32;98210.31;;;0.17;100.00
77351;BME280;66420;50.246;14.320;2024-02-26T02:31:17;98214.09;;;0.16;100.00
77351;BME280;66420;50.246;14.320;2024-02-26T02:34:02;98207.66;;;0.12;100.00
77351;BME280;66420;50.246;14.320;2024-02-26T02:36:54;98205.47;;;0.19;100.00
77351;BME280;66420;50.246;14.320;2024-02-26T02:39:39;98202.25;;;0.17;100.00
77351;BME280;66420;50.246;14.320;2024-02-26T02:42:23;98203.34;;;0.16;100.00
77351;BME280;66420;50.246;14.320;2024-02-26T02:45:09;98200.63;;;0.16;100.00
77351;BME280;66420;50.246;14.320;2024-02-26T02:47:54;98209.28;;;0.08;100.00
77351;BME280;66420;50.246;14.320;2024-02-26T02:50:40;98207.09;;;0.20;100.00
77351;BME280;66420;50.246;14.320;2024-02-26T02:53:25;98203.88;;;0.23;100.00
77351;BME280;66420;50.246;14.320;2024-02-26T02:56:10;98200.91;;;0.14;100.00
77351;BME280;66420;50.246;14.320;2024-02-26T02:58:55;98216.78;;;0.16;100.00
77351;BME280;66420;50.246;14.320;2024-02-26T03:01:40;98217.09;;;0.09;100.00
77351;BME280;66420;50.246;14.320;2024-02-26T03:04:25;98222.16;;;0.11;100.00
77351;BME280;66420;50.246;14.320;2024-02-26T03:07:10;98225.16;;;0.04;100.00
77351;BME280;66420;50.246;14.320;2024-02-26T03:09:54;98223.53;;;0.08;100.00
77351;BME280;66420;50.246;14.320;2024-02-26T03:12:39;98224.34;;;0.09;100.00
77351;BME280;66420;50.246;14.320;2024-02-26T03:15:24;98226.00;;;-0.11;100.00
77351;BME280;66420;50.246;14.320;2024-02-26T03:18:09;98229.16;;;0.12;100.00
77351;BME280;66420;50.246;14.320;2024-02-26T03:20:54;98226.97;;;0.24;100.00
77351;BME280;66420;50.246;14.320;2024-02-26T03:23:38;98224.81;;;0.26;100.00
77351;BME280;66420;50.246;14.320;2024-02-26T03:26:23;98223.75;;;0.27;100.00
77351;BME280;66420;50.246;14.320;2024-02-26T03:29:08;98226.72;;;0.15;100.00
77351;BME280;66420;50.246;14.320;2024-02-26T03:31:52;98227.03;;;0.09;100.00
77351;BME280;66420;50.246;14.320;2024-02-26T03:34:36;98230.53;;;0.09;100.00
77351;BME280;66420;50.246;14.320;2024-02-26T03:37:23;98226.25;;;-0.02;100.00
77351;BME280;66420;50.246;14.320;2024-02-26T03:40:08;98225.44;;;-0.03;100.00
77351;BME280;66420;50.246;14.320;2024-02-26T03:42:54;98235.13;;;-0.02;100.00
77351;BME280;66420;50.246;14.320;2024-02-26T03:45:38;98230.00;;;0.07;100.00
77351;BME280;66420;50.246;14.320;2024-02-26T03:48:24;98231.06;;;0.06;100.00
77351;BME280;66420;50.246;14.320;2024-02-26T03:51:09;98245.88;;;0.09;100.00
77351;BME280;66420;50.246;14.320;2024-02-26T03:53:55;98235.09;;;0.14;100.00
77351;BME280;66420;50.246;14.320;2024-02-26T03:56:39;98229.97;;;0.12;100.00
77351;BME280;66420;50.246;14.320;2024-02-26T03:59:24;98233.19;;;0.19;100.00
77351;BME280;66420;50.246;14.320;2024-02-26T04:02:09;98234.28;;;0.13;100.00
77351;BME280;66420;50.246;14.320;2024-02-26T04:04:54;98232.66;;;0.17;100.00
77351;BME280;66420;50.246;14.320;2024-02-26T04:07:39;98229.16;;;0.12;100.00
77351;BME280;66420;50.246;14.320;2024-02-26T04:10:25;98229.75;;;-0.02;100.00
77351;BME280;66420;50.246;14.320;2024-02-26T04:13:10;98226.00;;;-0.01;100.00
77351;BME280;66420;50.246;14.320;2024-02-26T04:15:55;98234.31;;;-0.02;100.00
77351;BME280;66420;50.246;14.320;2024-02-26T04:18:40;98222.75;;;0.03;100.00
77351;BME280;66420;50.246;14.320;2024-02-26T04:21:24;98235.09;;;0.09;100.00
77351;BME280;66420;50.246;14.320;2024-02-26T04:24:09;98242.38;;;0.03;100.00
77351;BME280;66420;50.246;14.320;2024-02-26T04:26:54;98237.78;;;0.14;100.00
77351;BME280;66420;50.246;14.320;2024-02-26T04:29:38;98238.88;;;-0.03;100.00
77351;BME280;66420;50.246;14.320;2024-02-26T04:32:23;98234.06;;;-0.01;100.00
77351;BME280;66420;50.246;14.320;2024-02-26T04:35:08;98232.94;;;0.00;100.00
77351;BME280;66420;50.246;14.320;2024-02-26T04:37:53;98230.53;;;0.09;100.00
77351;BME280;66420;50.246;14.320;2024-02-26T04:40:37;98237.47;;;0.20;100.00
77351;BME280;66420;50.246;14.320;2024-02-26T04:43:22;98237.47;;;0.25;100.00
77351;BME280;66420;50.246;14.320;2024-02-26T04:46:07;98230.75;;;0.23;100.00
77351;BME280;66420;50.246;14.320;2024-02-26T04:48:53;98235.03;;;0.29;100.00
77351;BME280;66420;50.246;14.320;2024-02-26T04:51:37;98238.50;;;0.34;100.00
77351;BME280;66420;50.246;14.320;2024-02-26T04:54:22;98231.84;;;0.22;100.00
77351;BME280;66420;50.246;14.320;2024-02-26T04:57:06;98232.66;;;0.17;100.00
77351;BME280;66420;50.246;14.320;2024-02-26T04:59:51;98232.38;;;0.19;100.00
77351;BME280;66420;50.246;14.320;2024-02-26T05:02:36;98227.78;;;0.19;100.00
77351;BME280;66420;50.246;14.320;2024-02-26T05:05:22;98227.53;;;0.16;100.00
77351;BME280;66420;50.246;14.320;2024-02-26T05:08:07;98235.03;;;0.24;100.00
77351;BME280;66420;50.246;14.320;2024-02-26T05:10:52;98242.06;;;0.15;100.00
77351;BME280;66420;50.246;14.320;2024-02-26T05:13:37;98240.72;;;0.17;100.00
77351;BME280;66420;50.246;14.320;2024-02-26T05:16:21;98236.66;;;0.25;100.00
77351;BME280;66420;50.246;14.320;2024-02-26T05:19:08;98247.19;;;0.11;100.00
77351;BME280;66420;50.246;14.320;2024-02-26T05:21:53;98248.00;;;0.17;100.00
77351;BME280;66420;50.246;14.320;2024-02-26T05:24:38;98247.44;;;0.20;100.00
77351;BME280;66420;50.246;14.320;2024-02-26T05:27:23;98245.56;;;0.20;100.00
77351;BME280;66420;50.246;14.320;2024-02-26T05:30:08;98249.31;;;0.24;100.00
77351;BME280;66420;50.246;14.320;2024-02-26T05:32:53;98257.66;;;0.23;100.00
77351;BME280;66420;50.246;14.320;2024-02-26T05:35:38;98253.38;;;0.22;100.00
77351;BME280;66420;50.246;14.320;2024-02-26T05:38:24;98251.19;;;0.19;100.00
77351;BME280;66420;50.246;14.320;2024-02-26T05:41:09;98266.81;;;0.22;100.00
77351;BME280;66420;50.246;14.320;2024-02-26T05:43:54;98270.56;;;0.31;100.00
77351;BME280;66420;50.246;14.320;2024-02-26T05:46:39;98261.09;;;0.38;100.00
77351;BME280;66420;50.246;14.320;2024-02-26T05:49:24;98268.38;;;0.38;100.00
77351;BME280;66420;50.246;14.320;2024-02-26T05:52:09;98269.72;;;0.40;100.00
77351;BME280;66420;50.246;14.320;2024-02-26T05:54:53;98270.53;;;0.41;100.00
77351;BME280;66420;50.246;14.320;2024-02-26T05:57:38;98274.28;;;0.40;100.00
77351;BME280;66420;50.246;14.320;2024-02-26T06:00:23;98273.19;;;0.46;100.00
77351;BME280;66420;50.246;14.320;2024-02-26T06:03:07;98283.69;;;0.42;100.00
77351;BME280;66420;50.246;14.320;2024-02-26T06:05:52;98292.84;;;0.41;100.00
77351;BME280;66420;50.246;14.320;2024-02-26T06:08:36;98282.59;;;0.54;100.00
77351;BME280;66420;50.246;14.320;2024-02-26T06:11:21;98288.81;;;0.49;100.00
77351;BME280;66420;50.246;14.320;2024-02-26T06:14:06;98287.16;;;0.58;100.00
77351;BME280;66420;50.246;14.320;2024-02-26T06:16:51;98279.91;;;0.54;100.00
77351;BME280;66420;50.246;14.320;2024-02-26T06:19:36;98277.47;;;0.57;100.00
77351;BME280;66420;50.246;14.320;2024-02-26T06:22:20;98275.81;;;0.61;100.00
77351;BME280;66420;50.246;14.320;2024-02-26T06:25:05;98272.56;;;0.64;100.00
77351;BME280;66420;50.246;14.320;2024-02-26T06:27:50;98279.31;;;0.67;100.00
77351;BME280;66420;50.246;14.320;2024-02-26T06:30:34;98278.50;;;0.66;100.00
77351;BME280;66420;50.246;14.320;2024-02-26T06:33:20;98286.56;;;0.71;100.00
77351;BME280;66420;50.246;14.320;2024-02-26T06:36:05;98295.97;;;0.74;100.00
77351;BME280;66420;50.246;14.320;2024-02-26T06:38:50;98292.22;;;0.70;100.00
77351;BME280;66420;50.246;14.320;2024-02-26T06:41:36;98293.00;;;0.75;100.00
77351;BME280;66420;50.246;14.320;2024-02-26T06:44:21;98294.88;;;0.75;100.00
77351;BME280;66420;50.246;14.320;2024-02-26T06:47:05;98302.13;;;0.79;100.00
77351;BME280;66420;50.246;14.320;2024-02-26T06:49:50;98298.34;;;0.85;100.00
77351;BME280;66420;50.246;14.320;2024-02-26T06:52:35;98304.22;;;0.93;100.00
77351;BME280;66420;50.246;14.320;2024-02-26T06:55:20;98309.56;;;1.03;100.00
77351;BME280;66420;50.246;14.320;2024-02-26T06:58:04;98304.69;;;1.10;100.00
77351;BME280;66420;50.246;14.320;2024-02-26T07:00:49;98294.16;;;1.13;100.00
77351;BME280;66420;50.246;14.320;2024-02-26T07:03:34;98305.75;;;1.14;100.00
77351;BME280;66420;50.246;14.320;2024-02-26T07:06:19;98302.75;;;1.15;100.00
77351;BME280;66420;50.246;14.320;2024-02-26T07:09:04;98310.00;;;1.20;100.00
77351;BME280;66420;50.246;14.320;2024-02-26T07:11:48;98304.09;;;1.23;100.00
77351;BME280;66420;50.246;14.320;2024-02-26T07:14:33;98307.50;;;1.33;100.00
77351;BME280;66420;50.246;14.320;2024-02-26T07:17:18;98310.72;;;1.36;100.00
77351;BME280;66420;50.246;14.320;2024-02-26T07:20:03;98307.72;;;1.42;100.00
77351;BME280;66420;50.246;14.320;2024-02-26T07:22:50;98307.97;;;1.46;100.00
77351;BME280;66420;50.246;14.320;2024-02-26T07:25:35;98305.75;;;1.53;100.00
77351;BME280;66420;50.246;14.320;2024-02-26T07:28:20;98308.19;;;1.54;100.00
77351;BME280;66420;50.246;14.320;2024-02-26T07:31:04;98305.50;;;1.54;100.00
77351;BME280;66420;50.246;14.320;2024-02-26T07:33:49;98305.44;;;1.64;100.00
77351;BME280;66420;50.246;14.320;2024-02-26T07:36:34;98306.94;;;1.75;100.00
77351;BME280;66420;50.246;14.320;2024-02-26T07:39:19;98315.75;;;1.86;100.00
77351;BME280;66420;50.246;14.320;2024-02-26T07:42:04;98327.31;;;1.92;100.00
77351;BME280;66420;50.246;14.320;2024-02-26T07:44:49;98320.78;;;1.98;100.00
77351;BME280;66420;50.246;14.320;2024-02-26T07:47:34;98323.13;;;2.09;100.00
77351;BME280;66420;50.246;14.320;2024-02-26T07:50:20;98314.25;;;2.04;100.00
77351;BME280;66420;50.246;14.320;2024-02-26T07:53:04;98322.88;;;2.06;100.00
77351;BME280;66420;50.246;14.320;2024-02-26T07:55:50;98324.88;;;2.24;100.00
77351;BME280;66420;50.246;14.320;2024-02-26T07:58:34;98322.69;;;2.26;100.00
77351;BME280;66420;50.246;14.320;2024-02-26T08:01:20;98320.94;;;2.40;100.00
77351;BME280;66420;50.246;14.320;2024-02-26T08:04:04;98324.16;;;2.42;100.00
77351;BME280;66420;50.246;14.320;2024-02-26T08:06:49;98320.28;;;2.48;100.00
77351;BME280;66420;50.246;14.320;2024-02-26T08:09:34;98332.44;;;2.51;100.00
77351;BME280;66420;50.246;14.320;2024-02-26T08:12:19;98329.50;;;2.47;100.00
77351;BME280;66420;50.246;14.320;2024-02-26T08:15:04;98328.16;;;2.45;100.00
77351;BME280;66420;50.246;14.320;2024-02-26T08:17:49;98332.31;;;2.37;100.00
77351;BME280;66420;50.246;14.320;2024-02-26T08:20:34;98333.41;;;2.36;100.00
77351;BME280;66420;50.246;14.320;2024-02-26T08:23:19;98339.78;;;2.45;100.00
77351;BME280;66420;50.246;14.320;2024-02-26T08:26:04;98341.97;;;2.14;100.00
77351;BME280;66420;50.246;14.320;2024-02-26T08:28:51;98354.13;;;2.12;100.00
77351;BME280;66420;50.246;14.320;2024-02-26T08:31:36;98340.13;;;2.10;100.00
77351;BME280;66420;50.246;14.320;2024-02-26T08:34:22;98356.97;;;1.97;100.00
77351;BME280;66420;50.246;14.320;2024-02-26T08:37:07;98355.34;;;1.96;100.00
77351;BME280;66420;50.246;14.320;2024-02-26T08:39:51;98351.00;;;2.00;100.00
77351;BME280;66420;50.246;14.320;2024-02-26T08:42:36;98349.38;;;1.99;100.00
77351;BME280;66420;50.246;14.320;2024-02-26T08:45:21;98357.44;;;2.04;100.00
77351;BME280;66420;50.246;14.320;2024-02-26T08:48:06;98354.47;;;2.05;100.00
77351;BME280;66420;50.246;14.320;2024-02-26T08:50:50;98354.72;;;2.04;100.00
77351;BME280;66420;50.246;14.320;2024-02-26T08:53:38;98355.53;;;2.04;100.00
77351;BME280;66420;50.246;14.320;2024-02-26T08:56:23;98353.19;;;1.93;100.00
77351;BME280;66420;50.246;14.320;2024-02-26T08:59:08;98358.00;;;2.01;100.00
77351;BME280;66420;50.246;14.320;2024-02-26T09:01:52;98356.97;;;1.97;100.00
77351;BME280;66420;50.246;14.320;2024-02-26T09:04:37;98356.41;;;2.00;100.00
77351;BME280;66420;50.246;14.320;2024-02-26T09:07:21;98356.97;;;1.97;100.00
77351;BME280;66420;50.246;14.320;2024-02-26T09:10:06;98360.91;;;2.09;100.00
77351;BME280;66420;50.246;14.320;2024-02-26T09:12:54;98356.78;;;2.17;100.00
77351;BME280;66420;50.246;14.320;2024-02-26T09:15:39;98362.09;;;2.27;100.00
77351;BME280;66420;50.246;14.320;2024-02-26T09:18:24;98366.19;;;2.25;100.00
77351;BME280;66420;50.246;14.320;2024-02-26T09:21:10;98360.16;;;2.33;100.00
77351;BME280;66420;50.246;14.320;2024-02-26T09:23:55;98361.16;;;2.42;100.00
77351;BME280;66420;50.246;14.320;2024-02-26T09:26:40;98359.72;;;2.49;100.00
77351;BME280;66420;50.246;14.320;2024-02-26T09:29:24;98370.19;;;2.56;100.00
77351;BME280;66420;50.246;14.320;2024-02-26T09:32:11;98375.03;;;2.59;100.00
77351;BME280;66420;50.246;14.320;2024-02-26T09:34:55;98369.28;;;2.65;100.00
77351;BME280;66420;50.246;14.320;2024-02-26T09:37:40;98376.88;;;2.63;100.00
77351;BME280;66420;50.246;14.320;2024-02-26T09:40:25;98366.81;;;2.69;100.00
77351;BME280;66420;50.246;14.320;2024-02-26T09:43:10;98373.06;;;2.64;100.00
77351;BME280;66420;50.246;14.320;2024-02-26T09:45:58;98377.56;;;2.74;100.00
77351;BME280;66420;50.246;14.320;2024-02-26T09:48:43;98377.25;;;2.76;100.00
77351;BME280;66420;50.246;14.320;2024-02-26T09:51:29;98378.97;;;2.66;100.00
77351;BME280;66420;50.246;14.320;2024-02-26T09:54:15;98373.56;;;2.66;100.00
77351;BME280;66420;50.246;14.320;2024-02-26T09:57:02;98374.47;;;2.86;100.00
77351;BME280;66420;50.246;14.320;2024-02-26T09:59:49;98370.31;;;2.93;100.00
77351;BME280;66420;50.246;14.320;2024-02-26T10:02:36;98370.66;;;3.10;100.00
77351;BME280;66420;50.246;14.320;2024-02-26T10:05:21;98367.53;;;3.22;100.00
77351;BME280;66420;50.246;14.320;2024-02-26T10:08:08;98373.53;;;3.19;100.00
77351;BME280;66420;50.246;14.320;2024-02-26T10:10:54;98372.28;;;3.11;100.00
77351;BME280;66420;50.246;14.320;2024-02-26T10:13:39;98372.13;;;3.22;100.00
77351;BME280;66420;50.246;14.320;2024-02-26T10:16:25;98371.88;;;3.42;100.00
77351;BME280;66420;50.246;14.320;2024-02-26T10:19:24;98378.69;;;3.58;100.00
77351;BME280;66420;50.246;14.320;2024-02-26T10:22:10;98368.66;;;3.58;100.00
77351;BME280;66420;50.246;14.320;2024-02-26T10:24:54;98369.03;;;3.52;100.00
77351;BME280;66420;50.246;14.320;2024-02-26T10:27:41;98364.81;;;3.65;100.00
77351;BME280;66420;50.246;14.320;2024-02-26T10:30:28;98359.31;;;3.70;100.00
77351;BME280;66420;50.246;14.320;2024-02-26T10:33:14;98372.31;;;3.68;100.00
77351;BME280;66420;50.246;14.320;2024-02-26T10:35:59;98380.50;;;3.81;100.00
77351;BME280;66420;50.246;14.320;2024-02-26T10:38:44;98380.91;;;3.75;100.00
77351;BME280;66420;50.246;14.320;2024-02-26T10:41:29;98394.28;;;3.66;100.00
77351;BME280;66420;50.246;14.320;2024-02-26T10:44:13;98393.47;;;3.84;100.00
77351;BME280;66420;50.246;14.320;2024-02-26T10:46:58;98391.19;;;3.91;100.00
77351;BME280;66420;50.246;14.320;2024-02-26T10:49:47;98398.78;;;4.08;100.00
77351;BME280;66420;50.246;14.320;2024-02-26T10:52:36;98401.00;;;3.87;100.00
77351;BME280;66420;50.246;14.320;2024-02-26T10:55:22;98411.63;;;4.03;100.00
77351;BME280;66420;50.246;14.320;2024-02-26T10:58:08;98412.69;;;4.01;100.00
77351;BME280;66420;50.246;14.320;2024-02-26T11:00:56;98409.53;;;4.13;100.00
77351;BME280;66420;50.246;14.320;2024-02-26T11:03:41;98408.00;;;4.26;100.00
77351;BME280;66420;50.246;14.320;2024-02-26T11:06:27;98402.78;;;4.29;100.00
77351;BME280;66420;50.246;14.320;2024-02-26T11:09:13;98401.81;;;4.39;100.00
77351;BME280;66420;50.246;14.320;2024-02-26T11:11:59;98399.25;;;4.47;100.00
77351;BME280;66420;50.246;14.320;2024-02-26T11:14:46;98404.06;;;4.51;100.00
77351;BME280;66420;50.246;14.320;2024-02-26T11:17:31;98395.00;;;4.41;100.00
77351;BME280;66420;50.246;14.320;2024-02-26T11:20:17;98397.44;;;4.57;100.00
77351;BME280;66420;50.246;14.320;2024-02-26T11:23:03;98381.88;;;4.49;100.00
77351;BME280;66420;50.246;14.320;2024-02-26T11:25:50;98389.56;;;4.41;100.00
77351;BME280;66420;50.246;14.320;2024-02-26T11:28:36;98389.59;;;4.55;100.00
77351;BME280;66420;50.246;14.320;2024-02-26T11:31:25;98388.13;;;4.63;100.00
77351;BME280;66420;50.246;14.320;2024-02-26T11:34:11;98383.63;;;4.72;100.00
77351;BME280;66420;50.246;14.320;2024-02-26T11:36:57;98387.09;;;4.59;100.00
77351;BME280;66420;50.246;14.320;2024-02-26T11:39:42;98385.53;;;4.71;100.00
77351;BME280;66420;50.246;14.320;2024-02-26T11:42:29;98392.69;;;4.81;100.00
77351;BME280;66420;50.246;14.320;2024-02-26T11:48:25;98380.94;;;4.99;100.00
77351;BME280;66420;50.246;14.320;2024-02-26T11:51:10;98379.63;;;5.10;100.00
77351;BME280;66420;50.246;14.320;2024-02-26T11:53:54;98385.06;;;5.10;100.00
77351;BME280;66420;50.246;14.320;2024-02-26T11:56:41;98385.06;;;5.10;100.00
77351;BME280;66420;50.246;14.320;2024-02-26T11:59:38;98382.84;;;5.12;100.00
77351;BME280;66420;50.246;14.320;2024-02-26T12:02:56;98382.06;;;5.12;100.00
77351;BME280;66420;50.246;14.320;2024-02-26T12:05:46;98377.63;;;5.16;100.00
77351;BME280;66420;50.246;14.320;2024-02-26T12:08:34;98371.81;;;5.22;100.00
77351;BME280;66420;50.246;14.320;2024-02-26T12:11:20;98375.00;;;5.24;100.00
77351;BME280;66420;50.246;14.320;2024-02-26T12:14:09;98373.59;;;5.13;100.00
77351;BME280;66420;50.246;14.320;2024-02-26T12:16:55;98371.00;;;5.08;100.00
77351;BME280;66420;50.246;14.320;2024-02-26T12:19:40;98369.38;;;5.34;100.00
77351;BME280;66420;50.246;14.320;2024-02-26T12:22:25;98362.91;;;5.58;100.00
77351;BME280;66420;50.246;14.320;2024-02-26T12:25:10;98363.06;;;5.75;100.00
77351;BME280;66420;50.246;14.320;2024-02-26T12:27:55;98366.28;;;5.91;100.00
77351;BME280;66420;50.246;14.320;2024-02-26T12:30:40;98370.47;;;5.83;100.00
77351;BME280;66420;50.246;14.320;2024-02-26T12:33:26;98374.53;;;5.72;100.00
77351;BME280;66420;50.246;14.320;2024-02-26T12:36:11;98374.53;;;5.72;100.00
77351;BME280;66420;50.246;14.320;2024-02-26T12:38:55;98370.69;;;5.73;100.00
77351;BME280;66420;50.246;14.320;2024-02-26T12:41:40;98366.56;;;5.89;100.00
77351;BME280;66420;50.246;14.320;2024-02-26T12:44:26;98371.72;;;5.77;100.00
77351;BME280;66420;50.246;14.320;2024-02-26T12:47:10;98362.03;;;5.85;100.00
77351;BME280;66420;50.246;14.320;2024-02-26T12:50:01;98376.69;;;5.97;100.00
77351;BME280;66420;50.246;14.320;2024-02-26T12:52:47;98376.28;;;6.04;100.00
77351;BME280;66420;50.246;14.320;2024-02-26T12:55:32;98376.31;;;5.90;100.00
77351;BME280;66420;50.246;14.320;2024-02-26T12:58:19;98378.81;;;5.87;100.00
77351;BME280;66420;50.246;14.320;2024-02-26T13:01:05;98384.78;;;5.89;100.00
77351;BME280;66420;50.246;14.320;2024-02-26T13:03:52;98390.19;;;5.89;100.00
77351;BME280;66420;50.246;14.320;2024-02-26T13:06:37;98396.03;;;5.96;100.00
77351;BME280;66420;50.246;14.320;2024-02-26T13:09:22;98400.97;;;5.80;100.00
77351;BME280;66420;50.246;14.320;2024-02-26T13:12:07;98403.25;;;6.00;100.00
77351;BME280;66420;50.246;14.320;2024-02-26T13:15:00;98402.53;;;6.08;100.00
77351;BME280;66420;50.246;14.320;2024-02-26T13:17:46;98405.34;;;6.03;99.85
77351;BME280;66420;50.246;14.320;2024-02-26T13:20:31;98410.47;;;6.05;100.00
77351;BME280;66420;50.246;14.320;2024-02-26T13:23:16;98410.19;;;5.93;100.00
77351;BME280;66420;50.246;14.320;2024-02-26T13:26:01;98406.78;;;5.87;100.00
77351;BME280;66420;50.246;14.320;2024-02-26T13:28:45;98402.06;;;5.93;100.00
77351;BME280;66420;50.246;14.320;2024-02-26T13:31:30;98400.84;;;5.85;100.00
77351;BME280;66420;50.246;14.320;2024-02-26T13:34:28;98404.66;;;5.84;100.00
77351;BME280;66420;50.246;14.320;2024-02-26T13:37:14;98412.81;;;5.84;100.00
77351;BME280;66420;50.246;14.320;2024-02-26T13:39:59;98407.31;;;5.89;99.67
77351;BME280;66420;50.246;14.320;2024-02-26T13:42:44;98400.75;;;5.90;99.49
77351;BME280;66420;50.246;14.320;2024-02-26T13:45:29;98397.44;;;5.93;99.38
77351;BME280;66420;50.246;14.320;2024-02-26T13:48:14;98396.22;;;5.99;99.11
77351;BME280;66420;50.246;14.320;2024-02-26T13:50:59;98395.69;;;5.97;99.23
77351;BME280;66420;50.246;14.320;2024-02-26T13:53:44;98400.53;;;6.00;99.20
77351;BME280;66420;50.246;14.320;2024-02-26T13:56:28;98396.03;;;5.96;100.00
77351;BME280;66420;50.246;14.320;2024-02-26T13:59:13;98397.13;;;5.95;99.56
77351;BME280;66420;50.246;14.320;2024-02-26T14:01:58;98400.84;;;5.99;99.40
77351;BME280;66420;50.246;14.320;2024-02-26T14:04:43;98406.44;;;6.02;99.56
77351;BME280;66420;50.246;14.320;2024-02-26T14:07:27;98408.34;;;6.02;99.90
77351;BME280;66420;50.246;14.320;2024-02-26T14:10:12;98418.75;;;6.00;100.00
77351;BME280;66420;50.246;14.320;2024-02-26T14:12:58;98426.09;;;5.99;99.97
77351;BME280;66420;50.246;14.320;2024-02-26T14:15:43;98416.03;;;6.00;100.00
77351;BME280;66420;50.246;14.320;2024-02-26T14:18:28;98425.97;;;6.04;99.78
77351;BME280;66420;50.246;14.320;2024-02-26T14:21:12;98426.03;;;6.13;99.72
77351;BME280;66420;50.246;14.320;2024-02-26T14:23:57;98433.34;;;6.26;98.82
77351;BME280;66420;50.246;14.320;2024-02-26T14:26:42;98423.63;;;6.11;97.69
77351;BME280;66420;50.246;14.320;2024-02-26T14:29:27;98426.16;;;6.08;98.11